Time;durP1;ratioP1;P1;durP2;ratioP2;P2;SDS_P1;SDS_P2;PMS_P1;PMS_P2;Temp;Humidity;BMP_temperature;BMP_pressure;BME280_temperature;BME280_humidity;BME280_pressure;Samples;Min_cycle;Max_cycle;Signal;HPM_P1;HPM_P2
2021/09/11 00:00:17;;;;;;;11.77;10.68;;;21.30;99.90;;;;;;5110658;28;20209;-74
2021/09/11 00:02:44;;;;;;;13.30;10.02;;;21.30;99.90;;;;;;5110615;28;20209;-74
2021/09/11 00:05:13;;;;;;;11.17;10.07;;;21.30;99.90;;;;;;5110547;28;20299;-74
2021/09/11 00:07:40;;;;;;;11.70;10.40;;;21.30;99.90;;;;;;5110259;28;20615;-73
2021/09/11 00:10:09;;;;;;;10.77;9.87;;;21.40;99.90;;;;;;5109857;28;20737;-74
2021/09/11 00:12:36;;;;;;;11.13;10.02;;;21.30;99.90;;;;;;5110224;27;20264;-74
2021/09/11 00:15:03;;;;;;;10.80;9.80;;;21.30;99.90;;;;;;5110518;28;20206;-75
2021/09/11 00:17:30;;;;;;;12.07;10.97;;;21.30;99.90;;;;;;5110049;28;20255;-74
2021/09/11 00:19:56;;;;;;;11.52;10.35;;;21.30;99.90;;;;;;5107155;28;20218;-74
2021/09/11 00:22:24;;;;;;;11.05;10.07;;;21.30;99.90;;;;;;5089719;28;20230;-74
2021/09/11 00:24:51;;;;;;;10.48;9.52;;;21.30;99.90;;;;;;5089808;28;20226;-74
2021/09/11 00:27:18;;;;;;;12.38;10.30;;;21.30;99.90;;;;;;5089677;28;20256;-74
2021/09/11 00:29:44;;;;;;;10.57;9.77;;;21.30;99.90;;;;;;5089700;28;20256;-74
2021/09/11 00:32:11;;;;;;;11.30;10.40;;;21.30;99.90;;;;;;5089246;28;20206;-74
2021/09/11 00:34:38;;;;;;;12.13;11.10;;;21.20;99.90;;;;;;5089476;28;20276;-75
2021/09/11 00:37:05;;;;;;;12.40;11.10;;;21.30;99.90;;;;;;5088725;28;20723;-74
2021/09/11 00:39:33;;;;;;;13.52;12.15;;;21.30;99.90;;;;;;5089326;28;20206;-75
2021/09/11 00:41:59;;;;;;;12.90;11.70;;;21.20;99.90;;;;;;5089197;28;20252;-75
2021/09/11 00:44:26;;;;;;;13.07;10.95;;;21.20;99.90;;;;;;5089024;28;20203;-73
2021/09/11 00:46:53;;;;;;;12.67;11.60;;;21.20;99.90;;;;;;5088893;28;20527;-73
2021/09/11 00:49:19;;;;;;;13.10;11.32;;;21.20;99.90;;;;;;5088885;28;20198;-74
2021/09/11 00:51:46;;;;;;;13.33;12.20;;;21.10;99.90;;;;;;5106826;28;20302;-73
2021/09/11 00:54:13;;;;;;;12.47;11.20;;;20.80;99.90;;;;;;5109331;28;20206;-73
2021/09/11 00:56:41;;;;;;;13.80;12.30;;;20.80;99.90;;;;;;5109255;28;20655;-75
2021/09/11 00:59:08;;;;;;;12.27;11.17;;;20.80;99.90;;;;;;5109841;28;20198;-75
2021/09/11 01:01:35;;;;;;;12.63;10.83;;;20.60;99.90;;;;;;5109543;28;20206;-75
2021/09/11 01:04:01;;;;;;;11.57;10.57;;;20.60;99.90;;;;;;5109068;28;20679;-76
2021/09/11 01:06:30;;;;;;;11.97;10.87;;;20.70;99.90;;;;;;5109087;28;20703;-75
2021/09/11 01:08:57;;;;;;;11.90;10.80;;;20.80;99.90;;;;;;5108757;28;20255;-74
2021/09/11 01:11:23;;;;;;;11.63;10.57;;;20.80;99.90;;;;;;5109488;28;20338;-74
2021/09/11 01:13:51;;;;;;;11.47;10.53;;;20.90;99.90;;;;;;5109017;28;20259;-74
2021/09/11 01:16:18;;;;;;;11.67;10.77;;;21.00;99.90;;;;;;5109263;28;20209;-74
2021/09/11 01:18:45;;;;;;;13.37;12.00;;;20.90;99.90;;;;;;5108798;28;20719;-74
2021/09/11 01:21:12;;;;;;;12.90;11.70;;;20.90;99.90;;;;;;5095792;28;20230;-74
2021/09/11 01:23:41;;;;;;;13.00;11.90;;;20.90;99.90;;;;;;5088271;28;20732;-74
2021/09/11 01:26:08;;;;;;;13.50;12.20;;;20.80;99.90;;;;;;5088843;28;20256;-74
2021/09/11 01:28:35;;;;;;;13.33;12.20;;;20.50;99.90;;;;;;5088985;28;20242;-74
2021/09/11 01:31:01;;;;;;;13.80;12.60;;;20.40;99.90;;;;;;5088666;28;20248;-74
2021/09/11 01:33:28;;;;;;;12.33;11.13;;;20.20;99.90;;;;;;5088797;28;20272;-74
2021/09/11 01:35:55;;;;;;;13.23;12.13;;;20.30;99.90;;;;;;5088780;28;20214;-74
2021/09/11 01:38:22;;;;;;;12.60;11.50;;;20.10;99.90;;;;;;5088466;28;20866;-74
2021/09/11 01:40:50;;;;;;;12.60;11.60;;;20.20;99.90;;;;;;5088438;28;20653;-74
2021/09/11 01:43:17;;;;;;;17.30;12.40;;;20.30;99.90;;;;;;5088557;28;21000;-74
2021/09/11 01:45:43;;;;;;;13.97;12.67;;;20.20;99.90;;;;;;5088441;28;20227;-74
2021/09/11 01:48:10;;;;;;;14.13;12.70;;;20.20;99.90;;;;;;5088558;28;20203;-74
2021/09/11 01:50:37;;;;;;;14.37;13.03;;;20.10;99.90;;;;;;5096657;28;20684;-73
2021/09/11 01:53:04;;;;;;;13.37;12.13;;;20.20;99.90;;;;;;5108778;28;20210;-74
2021/09/11 01:55:30;;;;;;;13.23;12.07;;;20.30;99.90;;;;;;5108450;28;20238;-74
2021/09/11 01:57:58;;;;;;;15.07;13.57;;;20.40;99.90;;;;;;5108286;28;20225;-74
2021/09/11 02:00:25;;;;;;;14.80;13.40;;;20.30;99.90;;;;;;5108647;28;20217;-73
2021/09/11 02:02:51;;;;;;;14.00;12.80;;;20.10;99.90;;;;;;5108525;28;20683;-73
2021/09/11 02:05:18;;;;;;;14.03;12.80;;;20.10;99.90;;;;;;5108833;28;20253;-73
2021/09/11 02:07:45;;;;;;;13.80;12.53;;;20.10;99.90;;;;;;5108661;28;20235;-73
2021/09/11 02:10:13;;;;;;;14.20;12.80;;;20.20;99.90;;;;;;5108764;28;20202;-74
2021/09/11 02:12:40;;;;;;;14.73;13.43;;;20.20;99.90;;;;;;5108690;28;20275;-73
2021/09/11 02:15:09;;;;;;;14.23;12.93;;;20.20;99.90;;;;;;5108771;28;20202;-72
2021/09/11 02:17:36;;;;;;;14.73;13.53;;;20.30;99.90;;;;;;5108693;28;20206;-72
2021/09/11 02:20:04;;;;;;;14.37;13.03;;;20.30;99.90;;;;;;5104747;28;20665;-72
2021/09/11 02:22:30;;;;;;;13.13;11.97;;;20.30;99.90;;;;;;5092018;28;20219;-72
2021/09/11 02:24:57;;;;;;;13.40;12.27;;;20.30;99.90;;;;;;5091908;28;20561;-72
2021/09/11 02:27:24;;;;;;;14.77;13.27;;;20.40;99.90;;;;;;5092103;28;20203;-72
2021/09/11 02:29:50;;;;;;;13.90;12.50;;;20.50;99.90;;;;;;5091383;28;20722;-72
2021/09/11 02:32:19;;;;;;;15.33;13.93;;;20.50;99.90;;;;;;5092043;28;20252;-75
2021/09/11 02:34:46;;;;;;;13.73;12.47;;;20.50;99.90;;;;;;5091765;28;20303;-74
2021/09/11 02:37:13;;;;;;;14.47;12.97;;;20.40;99.90;;;;;;5091744;28;20327;-75
2021/09/11 02:39:43;;;;;;;14.70;13.40;;;20.50;99.90;;;;;;5091610;28;20660;-75
2021/09/11 02:42:10;;;;;;;14.33;13.17;;;20.40;99.90;;;;;;5091642;28;20552;-75
2021/09/11 02:44:37;;;;;;;14.07;12.80;;;20.40;99.90;;;;;;5091713;28;20271;-75
2021/09/11 02:47:03;;;;;;;14.00;12.80;;;20.40;99.90;;;;;;5091338;28;20723;-75
2021/09/11 02:49:32;;;;;;;13.47;12.23;;;20.50;99.90;;;;;;5091709;28;20259;-75
2021/09/11 02:51:58;;;;;;;15.03;12.63;;;20.50;99.90;;;;;;5111286;28;20202;-75
2021/09/11 02:54:25;;;;;;;14.67;13.40;;;20.50;99.90;;;;;;5111995;28;20263;-75
2021/09/11 02:56:51;;;;;;;14.27;12.73;;;20.50;99.90;;;;;;5111208;28;20238;-75
2021/09/11 02:59:18;;;;;;;14.33;12.93;;;20.50;99.90;;;;;;5111877;28;20202;-75
2021/09/11 03:01:45;;;;;;;14.30;13.00;;;20.60;99.90;;;;;;5111521;28;20656;-75
2021/09/11 03:04:11;;;;;;;14.10;12.80;;;20.60;99.90;;;;;;5111241;28;20225;-75
2021/09/11 03:06:39;;;;;;;13.53;12.43;;;20.60;99.90;;;;;;5111741;28;20225;-75
2021/09/11 03:09:06;;;;;;;14.47;13.23;;;20.60;99.90;;;;;;5111619;28;20263;-75
2021/09/11 03:11:32;;;;;;;14.93;13.50;;;20.60;99.90;;;;;;5111733;28;20210;-75
2021/09/11 03:13:59;;;;;;;15.30;13.90;;;20.60;99.90;;;;;;5111308;28;20206;-74
2021/09/11 03:16:25;;;;;;;14.57;13.27;;;20.60;99.90;;;;;;5110872;28;20667;-72
2021/09/11 03:18:52;;;;;;;14.50;13.13;;;20.60;99.90;;;;;;5111335;28;20226;-75
2021/09/11 03:21:19;;;;;;;14.80;12.57;;;20.60;99.90;;;;;;5096953;28;20278;-75
2021/09/11 03:23:47;;;;;;;14.33;13.10;;;20.60;99.90;;;;;;5090683;28;20215;-75
2021/09/11 03:26:13;;;;;;;15.17;13.77;;;20.40;99.90;;;;;;5090819;28;20239;-75
2021/09/11 03:28:40;;;;;;;14.00;12.70;;;20.40;99.90;;;;;;5090759;28;20199;-74
2021/09/11 03:31:06;;;;;;;14.83;13.53;;;20.40;99.90;;;;;;5090657;28;20248;-74
2021/09/11 03:33:33;;;;;;;15.07;13.50;;;20.40;99.90;;;;;;5089762;28;20254;-74
2021/09/11 03:36:00;;;;;;;15.20;13.70;;;20.40;99.90;;;;;;5090526;28;20235;-75
2021/09/11 03:38:26;;;;;;;14.97;13.67;;;20.30;99.90;;;;;;5090466;28;20211;-74
2021/09/11 03:40:54;;;;;;;15.37;13.73;;;20.30;99.90;;;;;;5090361;28;20730;-74
2021/09/11 03:43:21;;;;;;;16.00;14.50;;;20.30;99.90;;;;;;5090782;28;20203;-76
2021/09/11 03:45:48;;;;;;;16.47;14.77;;;20.30;99.90;;;;;;5090335;28;20262;-74
2021/09/11 03:48:14;;;;;;;16.77;14.87;;;20.10;99.90;;;;;;5090346;28;20567;-74
2021/09/11 03:50:41;;;;;;;16.33;14.73;;;20.10;99.90;;;;;;5090114;28;20237;-74
2021/09/11 03:53:07;;;;;;;17.80;16.10;;;20.20;99.90;;;;;;5089946;28;20232;-74
2021/09/11 03:55:34;;;;;;;16.60;15.20;;;19.90;99.90;;;;;;5089665;28;20653;-74
2021/09/11 03:58:02;;;;;;;17.33;15.73;;;19.70;99.90;;;;;;5089971;28;20227;-74
2021/09/11 04:00:28;;;;;;;16.77;15.20;;;19.50;99.90;;;;;;5090072;28;20211;-74
2021/09/11 04:02:55;;;;;;;17.60;16.00;;;19.60;99.90;;;;;;5089959;28;20206;-74
2021/09/11 04:05:22;;;;;;;16.30;14.73;;;19.50;99.90;;;;;;5090276;28;20234;-74
2021/09/11 04:07:48;;;;;;;16.77;15.23;;;19.60;99.90;;;;;;5089668;28;20227;-75
2021/09/11 04:10:15;;;;;;;23.27;20.80;;;19.50;99.90;;;;;;5090174;28;20287;-75
2021/09/11 04:12:42;;;;;;;19.50;17.60;;;19.40;99.90;;;;;;5090127;28;20211;-75
2021/09/11 04:15:13;;;;;;;18.23;16.53;;;19.30;99.90;;;;;;5089845;28;20255;-74
2021/09/11 04:17:40;;;;;;;17.57;16.07;;;19.30;99.90;;;;;;5089777;28;20322;-75
2021/09/11 04:20:08;;;;;;;18.17;16.50;;;19.20;99.90;;;;;;5089638;28;20676;-75
2021/09/11 04:22:34;;;;;;;17.63;16.07;;;19.30;99.90;;;;;;5089771;28;20207;-74
2021/09/11 04:25:01;;;;;;;17.47;15.97;;;19.20;99.90;;;;;;5089738;28;20210;-73
2021/09/11 04:27:28;;;;;;;17.50;15.80;;;19.20;99.90;;;;;;5089530;28;20268;-73
2021/09/11 04:29:54;;;;;;;16.93;15.20;;;19.20;99.90;;;;;;5089640;28;20210;-73
2021/09/11 04:32:22;;;;;;;16.93;15.23;;;19.30;99.90;;;;;;5089561;28;20566;-72
2021/09/11 04:34:49;;;;;;;16.43;14.93;;;19.30;99.90;;;;;;5089373;28;20214;-72
2021/09/11 04:37:16;;;;;;;17.83;16.00;;;19.40;99.90;;;;;;5089331;28;20312;-72
2021/09/11 04:39:43;;;;;;;16.87;15.30;;;19.50;99.90;;;;;;5089360;28;20202;-72
2021/09/11 04:42:09;;;;;;;18.30;16.60;;;19.40;99.90;;;;;;5089289;28;20219;-73
2021/09/11 04:44:36;;;;;;;17.37;15.67;;;19.30;99.90;;;;;;5089256;28;20656;-72
2021/09/11 04:47:03;;;;;;;16.90;15.50;;;19.30;99.90;;;;;;5089210;28;20292;-74
2021/09/11 04:49:30;;;;;;;16.97;15.53;;;19.30;99.90;;;;;;5088613;28;20238;-74
2021/09/11 04:51:57;;;;;;;17.27;15.77;;;19.30;99.90;;;;;;5089051;28;20252;-75
2021/09/11 04:54:24;;;;;;;16.77;15.20;;;19.40;99.90;;;;;;5089125;28;20207;-75
2021/09/11 04:56:50;;;;;;;16.50;15.00;;;19.60;99.90;;;;;;5088461;28;20801;-76
2021/09/11 04:59:17;;;;;;;17.87;15.87;;;19.60;99.90;;;;;;5088752;28;20226;-75
2021/09/11 05:01:43;;;;;;;16.73;15.13;;;19.60;99.90;;;;;;5089177;28;20376;-75
2021/09/11 05:04:10;;;;;;;17.03;15.43;;;19.50;99.90;;;;;;5088503;28;20661;-75
2021/09/11 05:06:38;;;;;;;16.93;15.23;;;19.60;99.90;;;;;;5088842;28;20280;-75
2021/09/11 05:09:04;;;;;;;16.60;15.10;;;19.60;99.90;;;;;;5088752;28;20582;-75
2021/09/11 05:11:31;;;;;;;16.47;14.97;;;19.60;99.90;;;;;;5089031;28;20252;-75
2021/09/11 05:13:58;;;;;;;17.83;16.03;;;19.50;99.90;;;;;;5088476;28;20239;-73
2021/09/11 05:16:24;;;;;;;17.40;15.80;;;19.50;99.90;;;;;;5088541;28;20210;-73
2021/09/11 05:18:51;;;;;;;16.53;15.13;;;19.60;99.90;;;;;;5088054;28;20724;-73
2021/09/11 05:21:18;;;;;;;17.20;15.63;;;19.70;99.90;;;;;;5088282;28;20779;-73
2021/09/11 05:23:46;;;;;;;17.60;16.03;;;19.70;99.90;;;;;;5088596;28;20257;-75
2021/09/11 05:26:12;;;;;;;17.50;15.70;;;19.60;99.90;;;;;;5088385;28;20226;-75
2021/09/11 05:28:39;;;;;;;17.80;16.20;;;19.50;99.90;;;;;;5088522;28;20210;-75
2021/09/11 05:31:05;;;;;;;18.33;16.63;;;19.50;99.90;;;;;;5088668;28;20234;-74
2021/09/11 05:33:32;;;;;;;17.53;16.03;;;19.30;99.90;;;;;;5088642;28;20206;-74
2021/09/11 05:35:59;;;;;;;19.30;17.27;;;19.20;99.90;;;;;;5088392;28;20198;-74
2021/09/11 05:38:25;;;;;;;18.57;16.83;;;19.20;99.90;;;;;;5088314;28;20260;-74
2021/09/11 05:40:53;;;;;;;17.90;16.17;;;19.20;99.90;;;;;;5088486;28;20242;-74
2021/09/11 05:43:24;;;;;;;18.50;16.87;;;19.20;99.90;;;;;;5088139;28;20688;-74
2021/09/11 05:45:51;;;;;;;17.63;15.83;;;19.30;99.90;;;;;;5088229;28;20233;-74
2021/09/11 05:48:17;;;;;;;18.30;16.73;;;19.30;99.90;;;;;;5088301;28;20270;-75
2021/09/11 05:50:44;;;;;;;17.13;15.53;;;19.40;99.90;;;;;;5088273;28;20305;-77
2021/09/11 05:53:11;;;;;;;16.83;15.33;;;19.50;99.90;;;;;;5088527;28;21048;-77
2021/09/11 05:55:37;;;;;;;18.03;16.43;;;19.60;99.90;;;;;;5089375;28;20239;-76
2021/09/11 05:58:05;;;;;;;17.73;16.07;;;19.50;99.90;;;;;;5092454;28;20263;-77
2021/09/11 06:00:32;;;;;;;17.70;16.00;;;19.50;99.90;;;;;;5092592;28;20202;-77
2021/09/11 06:02:59;;;;;;;17.33;15.70;;;19.50;99.90;;;;;;5092251;28;20203;-77
2021/09/11 06:05:26;;;;;;;17.87;16.30;;;19.50;99.90;;;;;;5092251;28;20328;-76
2021/09/11 06:07:52;;;;;;;17.87;16.13;;;19.60;99.90;;;;;;5091861;28;20295;-77
2021/09/11 06:10:19;;;;;;;17.73;15.93;;;19.50;99.90;;;;;;5091913;28;20256;-77
2021/09/11 06:12:45;;;;;;;17.43;15.60;;;19.60;99.90;;;;;;5092067;28;20238;-77
2021/09/11 06:15:13;;;;;;;17.20;15.63;;;19.60;99.90;;;;;;5091718;28;20745;-75
2021/09/11 06:17:40;;;;;;;18.10;16.30;;;19.50;99.90;;;;;;5092051;28;21128;-75
2021/09/11 06:20:09;;;;;;;17.60;15.80;;;19.60;99.90;;;;;;5092135;28;20303;-75
2021/09/11 06:22:35;;;;;;;17.33;15.80;;;19.60;99.90;;;;;;5092007;28;20203;-75
2021/09/11 06:25:03;;;;;;;17.70;15.90;;;19.80;99.90;;;;;;5091740;28;20618;-75
2021/09/11 06:27:29;;;;;;;16.93;15.43;;;19.90;99.90;;;;;;5091874;28;20293;-75
2021/09/11 06:29:56;;;;;;;17.67;15.97;;;20.00;99.90;;;;;;5091392;28;20260;-75
2021/09/11 06:32:24;;;;;;;15.20;13.80;;;20.00;99.90;;;;;;5091685;28;20207;-75
2021/09/11 06:34:50;;;;;;;16.50;15.00;;;20.00;99.90;;;;;;5091966;28;20563;-74
2021/09/11 06:37:17;;;;;;;17.10;15.27;;;20.00;99.90;;;;;;5091452;28;20252;-75
2021/09/11 06:39:44;;;;;;;18.27;16.57;;;19.80;99.90;;;;;;5091583;28;20647;-75
2021/09/11 06:42:12;;;;;;;18.07;16.37;;;19.70;99.90;;;;;;5091604;28;20291;-74
2021/09/11 06:44:39;;;;;;;18.20;16.50;;;19.80;99.90;;;;;;5090981;28;20676;-73
2021/09/11 06:47:05;;;;;;;17.50;15.80;;;19.70;99.90;;;;;;5091100;28;20227;-74
2021/09/11 06:49:33;;;;;;;18.57;16.77;;;19.80;99.90;;;;;;5091315;28;20203;-74
2021/09/11 06:52:00;;;;;;;18.47;16.60;;;19.80;99.90;;;;;;5091007;28;20225;-73
2021/09/11 06:54:26;;;;;;;19.50;17.67;;;19.70;99.90;;;;;;5091070;28;20203;-73
2021/09/11 06:56:53;;;;;;;19.73;17.83;;;19.80;99.90;;;;;;5090343;28;20327;-74
2021/09/11 06:59:19;;;;;;;18.97;17.10;;;19.90;99.90;;;;;;5090942;28;20234;-73
2021/09/11 07:01:46;;;;;;;19.20;17.40;;;19.90;99.90;;;;;;5090902;28;20214;-75
2021/09/11 07:04:13;;;;;;;19.43;17.43;;;20.00;99.90;;;;;;5090556;28;20242;-75
2021/09/11 07:06:41;;;;;;;19.17;17.27;;;19.90;99.90;;;;;;5090059;28;20546;-75
2021/09/11 07:09:07;;;;;;;17.50;15.73;;;20.00;99.90;;;;;;5076583;28;20673;-74
2021/09/11 07:11:34;;;;;;;17.33;15.83;;;20.10;99.90;;;;;;5067076;28;20212;-74
2021/09/11 07:14:00;;;;;;;17.33;15.53;;;20.20;99.90;;;;;;5066873;28;20298;-74
2021/09/11 07:16:27;;;;;;;16.53;15.00;;;20.30;99.90;;;;;;5066515;28;20220;-74
2021/09/11 07:18:54;;;;;;;18.43;16.57;;;20.20;99.90;;;;;;5066665;28;20231;-74
2021/09/11 07:21:20;;;;;;;18.17;16.47;;;20.30;99.90;;;;;;5077212;28;20275;-76
2021/09/11 07:23:48;;;;;;;18.00;16.37;;;20.20;99.90;;;;;;5087130;28;20245;-78
2021/09/11 07:26:18;;;;;;;18.30;16.70;;;20.20;99.90;;;;;;5086905;28;20202;-78
2021/09/11 07:28:46;;;;;;;17.63;16.03;;;20.20;99.90;;;;;;5087288;28;20243;-79
2021/09/11 07:31:12;;;;;;;17.50;15.70;;;20.20;99.90;;;;;;5086531;28;20206;-78
2021/09/11 07:33:39;;;;;;;19.27;15.20;;;20.20;99.90;;;;;;5086437;28;20210;-79
2021/09/11 07:36:07;;;;;;;16.50;15.03;;;20.30;99.90;;;;;;5086609;28;20589;-79
2021/09/11 07:38:34;;;;;;;18.83;15.27;;;20.40;99.90;;;;;;5086678;28;20242;-80
2021/09/11 07:41:02;;;;;;;17.67;16.00;;;20.30;99.90;;;;;;5086569;28;20291;-79
2021/09/11 07:43:28;;;;;;;17.87;15.83;;;20.20;99.90;;;;;;5086554;28;20738;-78
2021/09/11 07:45:55;;;;;;;16.60;15.03;;;20.30;99.90;;;;;;5086265;28;20207;-78
2021/09/11 07:48:22;;;;;;;15.83;14.33;;;20.30;99.90;;;;;;5086245;28;20295;-78
2021/09/11 07:50:48;;;;;;;16.43;14.97;;;20.30;99.90;;;;;;5086439;28;20263;-79
2021/09/11 07:53:15;;;;;;;15.77;14.27;;;20.40;99.90;;;;;;5085963;28;20709;-78
2021/09/11 07:55:42;;;;;;;16.93;15.33;;;20.30;99.90;;;;;;5085852;28;20272;-78
2021/09/11 07:58:10;;;;;;;16.93;15.10;;;20.40;99.90;;;;;;5085754;28;20210;-78
2021/09/11 08:00:37;;;;;;;15.87;14.37;;;20.40;99.90;;;;;;5086404;28;20230;-78
2021/09/11 08:03:04;;;;;;;15.97;14.33;;;20.40;99.90;;;;;;5085757;28;20825;-78
2021/09/11 08:05:31;;;;;;;15.47;13.90;;;20.50;99.90;;;;;;5085891;28;20229;-78
2021/09/11 08:07:57;;;;;;;16.20;14.80;;;20.60;99.90;;;;;;5085491;28;20484;-78
2021/09/11 08:10:24;;;;;;;15.30;13.87;;;20.70;99.90;;;;;;5085743;28;20211;-77
2021/09/11 08:12:51;;;;;;;18.07;16.27;;;20.70;99.90;;;;;;5085667;28;20217;-78
2021/09/11 08:15:19;;;;;;;16.53;14.77;;;20.90;99.90;;;;;;5086059;28;20343;-77
2021/09/11 08:17:47;;;;;;;14.77;13.30;;;20.90;99.90;;;;;;5086026;28;20617;-75
2021/09/11 08:20:14;;;;;;;14.83;13.43;;;20.90;99.90;;;;;;5085414;28;20254;-75
2021/09/11 08:22:42;;;;;;;15.40;13.90;;;20.80;99.90;;;;;;5094501;28;20588;-74
2021/09/11 08:25:10;;;;;;;14.47;13.17;;;20.80;99.90;;;;;;5106044;28;20209;-75
2021/09/11 08:27:37;;;;;;;14.70;13.27;;;20.80;99.90;;;;;;5102368;28;20780;-75
2021/09/11 08:30:04;;;;;;;14.20;13.00;;;20.90;99.90;;;;;;5098899;28;20245;-75
2021/09/11 08:32:32;;;;;;;15.07;13.70;;;21.00;99.90;;;;;;5084478;28;20210;-75
2021/09/11 08:34:59;;;;;;;14.60;13.20;;;20.90;99.90;;;;;;5086072;28;20285;-75
2021/09/11 08:37:25;;;;;;;12.90;11.63;;;20.90;99.90;;;;;;5077497;28;20207;-76
2021/09/11 08:39:52;;;;;;;12.63;11.53;;;21.00;99.90;;;;;;5086052;28;21015;-75
2021/09/11 08:42:20;;;;;;;13.97;12.77;;;21.20;99.90;;;;;;5085734;28;20585;-75
2021/09/11 08:44:47;;;;;;;12.40;11.03;;;21.30;99.90;;;;;;5077766;28;20202;-75
2021/09/11 08:47:14;;;;;;;13.23;11.90;;;21.40;99.90;;;;;;5085863;28;20230;-75
2021/09/11 08:49:42;;;;;;;12.18;11.00;;;21.60;99.90;;;;;;5086011;28;20285;-76
2021/09/11 08:52:09;;;;;;;12.07;10.90;;;21.60;99.90;;;;;;5077379;28;20252;-75
2021/09/11 08:54:36;;;;;;;11.40;10.30;;;21.60;99.90;;;;;;5085812;28;20846;-75
2021/09/11 08:57:20;;;;;;;11.10;10.07;;;21.50;99.90;;;;;;5085879;28;20195;-75
2021/09/11 08:59:47;;;;;;;11.27;10.30;;;21.70;99.90;;;;;;5083856;28;20206;-75
2021/09/11 09:02:13;;;;;;;11.43;10.40;;;21.70;99.90;;;;;;5086026;28;20232;-75
2021/09/11 09:04:46;;;;;;;10.97;10.17;;;21.60;99.90;;;;;;5086380;28;20226;-75
2021/09/11 09:07:28;;;;;;;11.17;10.13;;;21.40;99.90;;;;;;5086260;28;20255;-75
2021/09/11 09:09:58;;;;;;;10.60;9.60;;;21.30;99.90;;;;;;5085435;28;20734;-75
2021/09/11 09:12:25;;;;;;;10.83;9.83;;;21.30;99.90;;;;;;5086062;28;20795;-75
2021/09/11 09:15:00;;;;;;;10.10;9.10;;;21.30;99.90;;;;;;5083540;28;20207;-78
2021/09/11 09:17:41;;;;;;;11.00;9.93;;;21.30;99.90;;;;;;5085691;28;20248;-78
2021/09/11 09:20:19;;;;;;;9.77;8.87;;;21.30;99.90;;;;;;5083981;28;20250;-78
2021/09/11 09:22:48;;;;;;;10.77;9.77;;;21.40;99.90;;;;;;5085005;28;20191;-79
2021/09/11 09:25:22;;;;;;;10.30;9.43;;;21.40;99.90;;;;;;5076263;28;20564;-78
2021/09/11 09:27:51;;;;;;;9.80;8.90;;;21.50;99.90;;;;;;5073495;28;20214;-78
2021/09/11 09:30:20;;;;;;;9.83;8.93;;;21.50;99.90;;;;;;5073022;28;20280;-78
2021/09/11 09:32:50;;;;;;;9.33;8.53;;;21.50;99.90;;;;;;5073708;28;20299;-78
2021/09/11 09:35:22;;;;;;;8.33;7.63;;;21.60;99.90;;;;;;5075667;28;20207;-78
2021/09/11 09:37:57;;;;;;;7.25;6.72;;;21.70;99.90;;;;;;5083216;28;20294;-78
2021/09/11 09:40:42;;;;;;;8.67;7.97;;;22.00;99.90;;;;;;5074258;28;20221;-78
2021/09/11 09:43:10;;;;;;;8.57;7.70;;;22.10;99.90;;;;;;5082743;28;20203;-78
2021/09/11 09:45:38;;;;;;;8.60;7.43;;;22.10;99.90;;;;;;5077560;28;20250;-78
2021/09/11 09:48:07;;;;;;;8.35;7.65;;;22.10;99.90;;;;;;5061345;28;20350;-78
2021/09/11 09:50:37;;;;;;;20.33;18.38;;;22.20;99.90;;;;;;5061882;28;20199;-78
2021/09/11 09:53:04;;;;;;;10.15;9.05;;;22.30;99.90;;;;;;5061603;28;20607;-77
2021/09/11 09:55:31;;;;;;;10.85;9.93;;;22.30;99.90;;;;;;5061523;28;20246;-77
2021/09/11 09:58:01;;;;;;;12.40;11.18;;;22.20;99.90;;;;;;5061748;28;20211;-78
2021/09/11 10:00:28;;;;;;;11.20;10.27;;;22.00;99.90;;;;;;5061493;28;20216;-78
2021/09/11 10:02:55;;;;;;;10.52;9.70;;;22.00;99.90;;;;;;5061513;28;20207;-78
2021/09/11 10:05:24;;;;;;;9.32;8.57;;;22.10;99.90;;;;;;5061227;28;20873;-78
2021/09/11 10:08:00;;;;;;;9.60;8.80;;;22.30;99.90;;;;;;5061454;28;20234;-77
2021/09/11 10:10:32;;;;;;;10.35;8.18;;;22.50;99.90;;;;;;5061162;28;20238;-77
2021/09/11 10:13:07;;;;;;;9.02;8.32;;;22.70;99.90;;;;;;5061244;28;20261;-77
2021/09/11 10:15:35;;;;;;;7.18;6.60;;;23.00;99.90;;;;;;5067834;28;20868;-78
2021/09/11 10:18:03;;;;;;;6.68;6.18;;;23.20;99.90;;;;;;5081274;28;20670;-79
2021/09/11 10:21:12;;;;;;;6.68;6.18;;;23.20;99.90;;;;;;5081464;28;20235;-78
2021/09/11 10:23:43;;;;;;;6.50;6.07;;;23.10;99.90;;;;;;5081705;28;20554;-78
2021/09/11 10:26:43;;;;;;;6.63;6.15;;;22.90;99.90;;;;;;5081037;28;20283;-78
2021/09/11 10:29:42;;;;;;;6.63;6.03;;;22.70;99.90;;;;;;5069030;28;20274;-78
2021/09/11 10:32:14;;;;;;;7.97;7.28;;;22.80;99.90;;;;;;5061849;28;20203;-78
2021/09/11 10:34:47;;;;;;;7.38;6.70;;;22.70;99.90;;;;;;5061622;28;20192;-78
2021/09/11 10:37:22;;;;;;;7.28;6.78;;;22.60;99.90;;;;;;5060993;28;20218;-79
2021/09/11 10:40:18;;;;;;;5.82;5.43;;;22.60;99.90;;;;;;5061563;28;20203;-78
2021/09/11 10:43:17;;;;;;;5.25;4.72;;;22.70;99.90;;;;;;5066679;28;20327;-78
2021/09/11 10:45:47;;;;;;;5.70;5.22;;;22.70;99.90;;;;;;5064844;28;20192;-79
2021/09/11 10:48:47;;;;;;;5.13;4.72;;;22.90;99.90;;;;;;5064480;28;20342;-79
2021/09/11 10:51:20;;;;;;;5.32;5.00;;;22.90;99.90;;;;;;5076443;28;20206;-79
2021/09/11 10:54:13;;;;;;;5.03;4.72;;;22.90;99.90;;;;;;5084686;28;20297;-79
2021/09/11 10:56:45;;;;;;;5.03;4.72;;;23.00;99.90;;;;;;5067281;28;20262;-79
2021/09/11 10:59:28;;;;;;;6.07;5.63;;;23.00;99.90;;;;;;5073180;28;20191;-79
2021/09/11 11:01:59;;;;;;;7.88;6.03;;;22.90;99.90;;;;;;5084199;28;20648;-79
2021/09/11 11:04:28;;;;;;;6.50;6.10;;;22.90;99.90;;;;;;5073784;28;20203;-80
2021/09/11 11:06:56;;;;;;;6.72;6.13;;;22.90;99.90;;;;;;5075921;28;20202;-78
2021/09/11 11:09:24;;;;;;;5.60;5.25;;;23.00;99.90;;;;;;5083328;28;20353;-77
2021/09/11 11:11:54;;;;;;;5.70;5.32;;;23.20;99.90;;;;;;5083530;28;20668;-78
2021/09/11 11:14:21;;;;;;;6.05;5.35;;;23.60;99.90;;;;;;5084035;28;20677;-78
2021/09/11 11:16:49;;;;;;;4.90;4.60;;;23.90;99.90;;;;;;5084364;28;20705;-77
2021/09/11 11:19:23;;;;;;;5.28;4.88;;;24.20;99.90;;;;;;5083638;28;20538;-79
2021/09/11 11:21:55;;;;;;;5.38;5.07;;;24.20;99.90;;;;;;5083584;28;20218;-79
2021/09/11 11:24:22;;;;;;;5.03;4.63;;;24.10;99.90;;;;;;5084485;28;20259;-78
2021/09/11 11:26:49;;;;;;;4.68;4.13;;;24.00;99.90;;;;;;5084728;28;20211;-78
2021/09/11 11:29:20;;;;;;;4.32;4.03;;;24.00;99.90;;;;;;5078130;28;20280;-78
2021/09/11 11:31:48;;;;;;;4.00;3.80;;;24.10;99.90;;;;;;5088137;28;20663;-78
2021/09/11 11:34:15;;;;;;;3.97;3.78;;;24.30;99.90;;;;;;5087390;28;20199;-78
2021/09/11 11:36:50;;;;;;;4.25;3.95;;;24.60;99.90;;;;;;5076356;28;20949;-78
2021/09/11 11:39:25;;;;;;;4.53;4.07;;;24.70;99.90;;;;;;5087730;28;20655;-78
2021/09/11 11:41:57;;;;;;;4.05;3.80;;;24.80;99.90;;;;;;5079094;28;20256;-78
2021/09/11 11:44:25;;;;;;;3.60;3.40;;;24.70;99.90;;;;;;5087150;28;20223;-78
2021/09/11 11:46:55;;;;;;;3.97;3.67;;;24.50;99.90;;;;;;5087080;28;20231;-79
2021/09/11 11:49:22;;;;;;;4.38;4.07;;;24.30;99.90;;;;;;5087347;28;20223;-79
2021/09/11 11:51:53;;;;;;;4.93;4.63;;;24.10;99.90;;;;;;5087157;28;20203;-79
2021/09/11 11:54:21;;;;;;;5.43;4.75;;;23.90;99.90;;;;;;5086344;28;20219;-79
2021/09/11 11:56:49;;;;;;;4.70;4.35;;;23.90;99.90;;;;;;5086404;28;20223;-80
2021/09/11 11:59:25;;;;;;;5.00;4.60;;;23.90;99.90;;;;;;5067309;28;20268;-79
2021/09/11 12:01:52;;;;;;;7.03;4.50;;;24.00;99.90;;;;;;5083886;28;20207;-81
2021/09/11 12:04:20;;;;;;;5.30;4.00;;;24.00;99.90;;;;;;5086727;28;20198;-79
2021/09/11 12:06:49;;;;;;;4.25;4.05;;;24.10;99.90;;;;;;5086874;28;20290;-78
2021/09/11 12:09:16;;;;;;;4.40;4.00;;;24.40;99.90;;;;;;5086319;28;20235;-78
2021/09/11 12:11:43;;;;;;;4.55;4.18;;;24.60;99.90;;;;;;5086357;28;20712;-78
2021/09/11 12:14:10;;;;;;;3.90;3.60;;;24.90;99.90;;;;;;5086759;28;20217;-78
2021/09/11 12:16:39;;;;;;;5.95;4.40;;;25.20;99.90;;;;;;5078588;28;20273;-78
2021/09/11 12:19:13;;;;;;;3.85;3.60;;;25.30;99.90;;;;;;5086028;28;20577;-78
2021/09/11 12:21:40;;;;;;;3.75;3.50;;;25.40;99.90;;;;;;5085927;28;20255;-78
2021/09/11 12:24:18;;;;;;;3.50;3.30;;;25.60;99.90;;;;;;5086114;28;20231;-78
2021/09/11 12:26:45;;;;;;;3.75;3.45;;;25.50;99.90;;;;;;5084789;28;20191;-80
2021/09/11 12:29:13;;;;;;;3.17;2.97;;;25.10;99.90;;;;;;5086398;28;20856;-80
2021/09/11 12:31:52;;;;;;;3.80;3.58;;;25.00;99.90;;;;;;5086057;28;20736;-79
2021/09/11 12:34:19;;;;;;;3.50;3.15;;;25.00;99.90;;;;;;5083834;28;20191;-78
2021/09/11 12:36:48;;;;;;;3.90;2.83;;;25.10;99.90;;;;;;5086108;28;20199;-78